createdAt,value
2022-09-03T08:33:37.459Z,100580.00
2022-09-03T08:35:40.300Z,100580.00
2022-09-03T08:37:42.576Z,100589.31
2022-09-03T08:39:45.744Z,100580.88
2022-09-03T08:41:51.644Z,100579.31
2022-09-03T08:43:58.163Z,100584.69
2022-09-03T08:46:05.690Z,100585.94
2022-09-03T08:48:15.405Z,100582.00
2022-09-03T08:50:33.048Z,100588.12
2022-09-03T08:53:07.372Z,100581.47
2022-09-03T08:55:22.247Z,100583.28
2022-09-03T08:57:25.788Z,100581.00
2022-09-03T08:59:32.992Z,100583.00
2022-09-03T09:02:07.130Z,100579.22
2022-09-03T09:04:24.528Z,100581.88
2022-09-03T09:06:40.035Z,100581.72
2022-09-03T09:08:51.345Z,100582.44
2022-09-03T09:11:21.686Z,100579.81
2022-09-03T09:13:45.679Z,100576.28
2022-09-03T09:15:48.207Z,100566.66
2022-09-03T09:18:14.669Z,100565.69
2022-09-03T09:20:42.725Z,100560.00
2022-09-03T09:22:50.738Z,100555.91
2022-09-03T09:24:55.747Z,100559.97
2022-09-03T09:27:04.425Z,100567.50
2022-09-03T09:29:11.410Z,100561.97
2022-09-03T09:31:18.917Z,100554.47
2022-09-03T09:33:21.872Z,100560.41
2022-09-03T09:35:24.865Z,100556.94
2022-09-03T09:37:27.573Z,100550.91
2022-09-03T09:39:30.027Z,100561.59
2022-09-03T09:41:34.706Z,100563.66
2022-09-03T09:43:37.975Z,100556.78
2022-09-03T09:45:42.820Z,100552.59
2022-09-03T09:47:47.250Z,100559.22
2022-09-03T09:49:49.480Z,100554.03
2022-09-03T09:52:02.222Z,100555.37
2022-09-03T09:54:18.713Z,100551.16
2022-09-03T09:56:24.019Z,100551.25
2022-09-03T09:58:30.989Z,100554.12
2022-09-03T10:00:35.011Z,100555.09
2022-09-03T10:02:40.548Z,100549.37
2022-09-03T10:04:45.826Z,100555.25
2022-09-03T10:07:15.745Z,100546.84
2022-09-03T10:09:23.450Z,100549.13
2022-09-03T10:11:38.235Z,100553.03
2022-09-03T10:13:45.821Z,100561.88
2022-09-03T10:15:58.838Z,100565.22
2022-09-03T10:18:28.228Z,100556.41
2022-09-03T10:20:49.860Z,100558.75
2022-09-03T10:22:57.754Z,100554.03
2022-09-03T10:25:03.386Z,100555.63
2022-09-03T10:27:12.241Z,100554.03
2022-09-03T10:29:21.952Z,100556.91
2022-09-03T10:31:41.468Z,100550.50
2022-09-03T10:33:53.043Z,100548.44
2022-09-03T10:36:21.425Z,100553.28
2022-09-03T10:38:26.434Z,100550.34
2022-09-03T10:40:42.815Z,100544.31
2022-09-03T10:43:09.062Z,100541.91
2022-09-03T10:45:31.781Z,100544.00
2022-09-03T10:47:59.626Z,100537.91
2022-09-03T10:50:17.484Z,100539.03
2022-09-03T10:52:33.593Z,100532.72
2022-09-03T10:54:39.059Z,100538.94
2022-09-03T10:56:57.004Z,100534.78
2022-09-03T10:59:11.648Z,100529.78
2022-09-03T11:01:43.090Z,100526.78
2022-09-03T11:04:19.984Z,100517.59
2022-09-03T11:06:29.526Z,100527.75
2022-09-03T11:08:34.496Z,100520.25
2022-09-03T11:10:50.191Z,100515.56
2022-09-03T11:13:20.722Z,100519.22
2022-09-03T11:15:31.473Z,100513.56
2022-09-03T11:17:49.186Z,100508.06
2022-09-03T11:20:08.715Z,100507.44
2022-09-03T11:22:13.209Z,100503.88
2022-09-03T11:24:22.578Z,100497.00
2022-09-03T11:26:26.460Z,100502.94
2022-09-03T11:28:58.651Z,100498.91
2022-09-03T11:31:24.018Z,100498.72
2022-09-03T11:33:28.547Z,100496.50
2022-09-03T11:35:34.070Z,100504.75
2022-09-03T11:37:59.315Z,100497.44
2022-09-03T11:40:19.444Z,100502.41
2022-09-03T11:42:29.560Z,100491.56
2022-09-03T11:44:51.238Z,100484.81
2022-09-03T11:46:59.131Z,100501.16
2022-09-03T11:49:13.815Z,100493.91
2022-09-03T11:51:25.558Z,100488.16
2022-09-03T11:53:35.038Z,100483.44
2022-09-03T11:55:54.712Z,100489.16
2022-09-03T11:57:58.749Z,100490.09
2022-09-03T12:00:18.162Z,100486.47
2022-09-03T12:02:33.718Z,100490.53
2022-09-03T12:05:04.060Z,100484.09
2022-09-03T12:07:25.237Z,100494.28
2022-09-03T12:09:30.716Z,100503.81
2022-09-03T12:11:51.324Z,100500.88
2022-09-03T12:14:29.076Z,100504.63
2022-09-03T12:16:31.648Z,100499.50
2022-09-03T12:18:36.716Z,100505.22
2022-09-03T12:20:40.489Z,100487.47
2022-09-03T12:22:43.259Z,100485.69
2022-09-03T12:24:45.718Z,100482.75
2022-09-03T12:26:48.039Z,100479.91
2022-09-03T12:28:53.275Z,100489.31
2022-09-03T12:31:08.304Z,100472.84
2022-09-03T12:33:14.257Z,100474.13
2022-09-03T12:40:18.328Z,100466.66
2022-09-03T12:42:26.088Z,100473.47
2022-09-03T12:44:30.145Z,100474.81
2022-09-03T12:46:34.551Z,100470.44
2022-09-03T12:48:40.322Z,100473.47
2022-09-03T12:50:49.397Z,100471.72
2022-09-03T12:53:03.654Z,100464.56
2022-09-03T12:55:15.329Z,100462.78
2022-09-03T12:57:22.696Z,100472.53
2022-09-03T12:59:29.211Z,100479.53
2022-09-03T13:01:38.638Z,100482.34
2022-09-03T13:04:17.215Z,100490.03
2022-09-03T13:06:23.215Z,100479.34
2022-09-03T13:08:31.812Z,100472.31
2022-09-03T13:10:39.037Z,100472.22
2022-09-03T13:12:53.439Z,100483.09
2022-09-03T13:14:56.207Z,100475.09
2022-09-03T13:17:06.758Z,100482.25
2022-09-03T13:19:18.256Z,100474.97
2022-09-03T13:21:45.361Z,100473.03
2022-09-03T13:24:16.195Z,100482.53
2022-09-03T13:26:41.097Z,100482.94
2022-09-03T13:29:18.948Z,100477.28
2022-09-03T13:31:43.745Z,100481.37
2022-09-03T13:33:53.004Z,100475.28
2022-09-03T13:36:02.706Z,100473.22
2022-09-03T13:38:23.056Z,100465.31
2022-09-03T13:40:31.719Z,100465.06
2022-09-03T13:42:39.401Z,100467.03
2022-09-03T13:44:52.874Z,100467.34
2022-09-03T13:47:13.294Z,100465.38
2022-09-03T13:50:07.397Z,100472.34
2022-09-03T13:52:22.464Z,100459.62
2022-09-03T13:54:49.498Z,100462.91
2022-09-03T13:57:16.400Z,100462.06
2022-09-03T13:59:48.820Z,100453.31
2022-09-03T14:02:07.011Z,100459.38
2022-09-03T14:04:21.222Z,100457.53
2022-09-03T14:07:04.814Z,100455.13
2022-09-03T14:09:34.918Z,100453.84
2022-09-03T14:12:01.278Z,100463.63
2022-09-03T14:14:41.644Z,100457.03
2022-09-03T14:16:51.294Z,100457.87
2022-09-03T14:19:06.894Z,100455.47
2022-09-03T14:21:20.061Z,100456.56
2022-09-03T14:23:46.216Z,100447.13
2022-09-03T14:25:58.725Z,100447.84
2022-09-03T14:28:19.725Z,100452.97
2022-09-03T14:30:38.177Z,100447.69
2022-09-03T14:32:50.741Z,100443.09
2022-09-03T14:35:06.062Z,100448.00
2022-09-03T14:37:30.094Z,100443.72
2022-09-03T14:39:56.411Z,100446.16
2022-09-03T14:42:24.409Z,100449.38
2022-09-03T14:44:36.153Z,100441.56
2022-09-03T14:47:07.599Z,100440.81
2022-09-03T14:49:42.115Z,100439.53
2022-09-03T14:52:11.906Z,100442.62
2022-09-03T14:54:26.103Z,100431.50
2022-09-03T14:56:45.289Z,100427.13
2022-09-03T14:59:14.139Z,100432.88
2022-09-03T15:01:33.965Z,100437.19
2022-09-03T15:04:06.768Z,100442.91
2022-09-03T15:06:37.472Z,100445.72
2022-09-03T15:09:15.359Z,100446.81
2022-09-03T15:11:22.861Z,100443.22
2022-09-03T15:13:45.328Z,100448.34
2022-09-03T15:16:06.766Z,100451.13
2022-09-03T15:18:27.765Z,100458.19
2022-09-03T15:20:31.370Z,100451.00
2022-09-03T15:23:14.070Z,100456.47
2022-09-03T15:25:37.181Z,100453.97
2022-09-03T15:27:45.281Z,100452.44
2022-09-03T15:30:07.825Z,100446.13
2022-09-03T15:32:19.476Z,100451.66
2022-09-03T15:34:21.676Z,100450.00
2022-09-03T15:36:28.516Z,100444.66
2022-09-03T15:39:04.920Z,100444.88
2022-09-03T15:41:17.997Z,100442.62
2022-09-03T15:43:30.483Z,100445.31
2022-09-03T15:45:49.715Z,100442.62
2022-09-03T15:47:56.117Z,100442.91
2022-09-03T15:50:03.045Z,100447.22
2022-09-03T15:52:48.860Z,100444.06
2022-09-03T15:55:12.776Z,100442.81
2022-09-03T15:57:37.266Z,100454.34
2022-09-03T16:00:07.646Z,100452.00
2022-09-03T16:02:18.380Z,100445.50
2022-09-03T16:04:49.100Z,100452.88
2022-09-03T16:07:02.292Z,100449.50
2022-09-03T16:09:26.145Z,100443.19
2022-09-03T16:11:55.454Z,100445.50
2022-09-03T16:14:08.451Z,100435.41
2022-09-03T16:16:30.594Z,100445.44
2022-09-03T16:18:49.756Z,100445.31
2022-09-03T16:21:01.488Z,100444.66
2022-09-03T16:23:33.154Z,100449.50
2022-09-03T16:25:45.225Z,100444.34
2022-09-03T16:27:56.969Z,100442.84
2022-09-03T16:29:59.484Z,100448.69
2022-09-03T16:32:34.361Z,100449.34
2022-09-03T16:35:01.521Z,100452.19
2022-09-03T16:37:13.259Z,100455.19
2022-09-03T16:39:40.287Z,100451.19
2022-09-03T16:41:58.644Z,100462.34
2022-09-03T16:44:26.348Z,100460.53
2022-09-03T16:46:50.666Z,100460.84
2022-09-03T16:49:08.235Z,100459.50
2022-09-03T16:51:21.130Z,100459.16
2022-09-03T16:54:09.040Z,100463.66
2022-09-03T16:56:37.923Z,100458.31
2022-09-03T16:58:55.735Z,100450.50
2022-09-03T17:01:07.044Z,100453.66
2022-09-03T17:03:39.302Z,100461.84
2022-09-03T17:06:00.759Z,100465.34
2022-09-03T17:08:25.330Z,100464.34
2022-09-03T17:10:55.310Z,100472.19
2022-09-03T17:13:29.966Z,100475.19
2022-09-03T17:16:01.267Z,100478.34
2022-09-03T17:18:19.737Z,100478.88
2022-09-03T17:20:39.907Z,100469.50
2022-09-03T17:22:53.482Z,100475.75
2022-09-03T17:25:08.525Z,100474.31
2022-09-03T17:27:25.545Z,100477.16
2022-09-03T17:29:49.680Z,100479.09
2022-09-03T17:32:14.237Z,100481.31
2022-09-03T17:34:37.673Z,100491.19
2022-09-03T17:36:51.753Z,100490.19
2022-09-03T17:39:22.817Z,100487.78
2022-09-03T17:41:38.570Z,100497.41
2022-09-03T17:43:54.996Z,100492.13
2022-09-03T17:46:16.101Z,100498.16
2022-09-03T17:48:36.907Z,100496.34
2022-09-03T17:51:09.552Z,100504.31
2022-09-03T17:53:26.916Z,100506.25
2022-09-03T17:56:09.946Z,100503.31
2022-09-03T17:58:47.874Z,100505.34
2022-09-03T18:01:08.861Z,100496.16
2022-09-03T18:03:53.196Z,100501.16
2022-09-03T18:06:04.451Z,100506.97
2022-09-03T18:08:12.844Z,100510.66
2022-09-03T18:10:32.346Z,100519.25
2022-09-03T18:13:01.470Z,100519.59
2022-09-03T18:15:09.465Z,100521.31
2022-09-03T18:17:31.415Z,100530.16
2022-09-03T18:19:58.146Z,100533.84
2022-09-03T18:22:23.403Z,100536.97
2022-09-03T18:24:58.434Z,100532.63
2022-09-03T18:27:28.426Z,100531.78
2022-09-03T18:30:02.175Z,100542.91
2022-09-03T18:32:24.483Z,100542.91
2022-09-03T18:34:50.414Z,100547.97
2022-09-03T18:37:11.774Z,100549.66
2022-09-03T18:39:46.020Z,100544.00
2022-09-03T18:42:24.740Z,100543.06
2022-09-03T18:45:21.453Z,100545.22
2022-09-03T18:48:01.552Z,100559.13
2022-09-03T18:50:45.247Z,100551.75
2022-09-03T18:53:21.418Z,100554.19
2022-09-03T18:56:08.692Z,100551.12
2022-09-03T18:58:38.554Z,100542.53
2022-09-03T19:01:16.062Z,100545.81
2022-09-03T19:04:25.416Z,100551.28
2022-09-03T19:07:00.665Z,100549.19
2022-09-03T19:10:04.713Z,100538.34
2022-09-03T19:12:41.196Z,100548.31
2022-09-03T19:15:20.437Z,100556.31
2022-09-03T19:18:21.250Z,100556.09
2022-09-03T19:20:49.668Z,100560.50
2022-09-03T19:23:11.489Z,100558.09
2022-09-03T19:25:35.077Z,100553.81
2022-09-03T19:28:27.037Z,100557.94
2022-09-03T19:31:05.375Z,100557.69
2022-09-03T19:33:32.677Z,100553.03
2022-09-03T19:36:08.866Z,100553.81
2022-09-03T19:38:38.766Z,100559.00
2022-09-03T19:41:24.956Z,100554.84
2022-09-03T19:43:52.533Z,100565.97
2022-09-03T19:46:31.073Z,100560.38
2022-09-03T19:49:28.577Z,100558.97
2022-09-03T19:52:06.233Z,100561.38
2022-09-03T19:54:28.088Z,100568.13
2022-09-03T19:56:49.463Z,100568.34
2022-09-03T19:59:17.213Z,100576.94
2022-09-03T20:01:39.805Z,100575.53
2022-09-03T20:04:01.639Z,100574.38
2022-09-03T20:06:26.715Z,100575.19
2022-09-03T20:08:49.156Z,100576.16
2022-09-03T20:10:56.712Z,100579.87
2022-09-03T20:13:02.819Z,100590.78
2022-09-03T20:15:07.093Z,100596.03
2022-09-03T20:17:32.393Z,100594.78
2022-09-03T20:20:02.637Z,100598.75
2022-09-03T20:22:29.941Z,100595.16
2022-09-03T20:24:56.501Z,100603.31
2022-09-03T20:27:36.667Z,100601.69
2022-09-03T20:30:01.224Z,100600.16
2022-09-03T20:32:44.624Z,100604.56
2022-09-03T20:35:13.701Z,100609.13
2022-09-03T20:37:15.981Z,100606.47
2022-09-03T20:39:36.476Z,100610.34
2022-09-03T20:41:57.970Z,100615.66
2022-09-03T20:44:24.510Z,100617.75
2022-09-03T20:46:49.466Z,100622.59
2022-09-03T20:49:01.142Z,100624.84
2022-09-03T20:51:27.397Z,100628.03
2022-09-03T20:53:57.971Z,100635.47
2022-09-03T20:56:20.166Z,100630.50
2022-09-03T20:58:38.084Z,100628.00
2022-09-03T21:00:58.054Z,100636.94
2022-09-03T21:03:15.368Z,100638.19
2022-09-03T21:05:20.663Z,100642.12
2022-09-03T21:07:22.997Z,100651.06
2022-09-03T21:09:37.356Z,100640.44
2022-09-03T21:11:55.332Z,100645.19
2022-09-03T21:14:01.077Z,100639.75
2022-09-03T21:16:17.001Z,100640.03
2022-09-03T21:18:50.148Z,100639.31
2022-09-03T21:20:58.645Z,100644.31
2022-09-03T21:23:35.206Z,100641.56
2022-09-03T21:25:42.640Z,100642.78
2022-09-03T21:27:50.212Z,100644.09
2022-09-03T21:29:58.511Z,100650.22
2022-09-03T21:32:25.050Z,100653.00
2022-09-03T21:34:37.874Z,100652.16
2022-09-03T21:36:43.419Z,100661.97
2022-09-03T21:38:50.972Z,100656.38
2022-09-03T21:41:34.023Z,100652.03
2022-09-03T21:43:50.234Z,100654.16
2022-09-03T21:46:07.892Z,100665.28
2022-09-03T21:48:25.412Z,100655.09
2022-09-03T21:51:00.187Z,100661.69
2022-09-03T21:53:31.791Z,100657.47
2022-09-03T21:55:52.633Z,100662.34
2022-09-03T21:58:22.084Z,100660.94
2022-09-03T22:00:35.015Z,100661.63
2022-09-03T22:02:38.515Z,100661.75
2022-09-03T22:04:40.837Z,100661.22
2022-09-03T22:07:11.191Z,100660.22
2022-09-03T22:09:37.665Z,100659.38
2022-09-03T22:11:53.504Z,100660.72
